createdAt,value
2018-11-28T00:02:05.424Z,30.20
2018-11-28T00:04:34.212Z,32.87
2018-11-28T00:07:03.095Z,29.97
2018-11-28T00:09:31.965Z,33.33
2018-11-28T00:12:00.837Z,28.90
2018-11-28T00:14:29.516Z,30.13
2018-11-28T00:16:58.270Z,34.73
2018-11-28T00:19:27.184Z,31.13
2018-11-28T00:21:55.847Z,32.83
2018-11-28T00:24:24.440Z,32.10
2018-11-28T00:26:53.072Z,32.97
2018-11-28T00:29:22.024Z,32.87
2018-11-28T00:31:50.700Z,29.37
2018-11-28T00:34:19.281Z,33.87
2018-11-28T00:36:48.043Z,33.13
2018-11-28T00:39:16.960Z,34.83
2018-11-28T00:41:45.708Z,31.87
2018-11-28T00:44:14.337Z,33.13
2018-11-28T00:46:43.437Z,31.33
2018-11-28T00:49:12.336Z,32.50
2018-11-28T00:51:41.033Z,32.27
2018-11-28T00:54:09.813Z,33.27
2018-11-28T00:56:38.513Z,32.53
2018-11-28T00:59:07.350Z,30.27
2018-11-28T01:01:36.086Z,34.43
2018-11-28T01:04:05.035Z,33.37
2018-11-28T01:06:33.900Z,34.77
2018-11-28T01:09:03.091Z,31.20
2018-11-28T01:11:31.684Z,39.87
2018-11-28T01:14:00.424Z,27.33
2018-11-28T01:16:29.317Z,34.83
2018-11-28T01:18:58.196Z,35.50
2018-11-28T01:21:26.861Z,33.57
2018-11-28T01:23:55.602Z,37.60
2018-11-28T01:26:24.288Z,33.50
2018-11-28T01:28:53.033Z,33.73
2018-11-28T01:31:21.905Z,36.30
2018-11-28T01:33:50.887Z,36.30
2018-11-28T01:36:19.652Z,35.43
2018-11-28T01:38:48.655Z,33.37
2018-11-28T01:41:17.407Z,34.83
2018-11-28T01:43:45.938Z,34.03
2018-11-28T01:46:15.569Z,36.57
2018-11-28T01:48:44.132Z,33.40
2018-11-28T01:51:12.886Z,32.33
2018-11-28T01:53:41.612Z,36.23
2018-11-28T01:56:10.373Z,32.93
2018-11-28T01:58:39.260Z,36.57
2018-11-28T02:01:07.912Z,40.93
2018-11-28T02:03:36.433Z,33.03
2018-11-28T02:06:05.571Z,36.77
2018-11-28T02:08:34.476Z,35.60
2018-11-28T02:11:03.336Z,37.00
2018-11-28T02:13:32.214Z,35.57
2018-11-28T02:16:01.081Z,36.27
2018-11-28T02:18:29.738Z,34.97
2018-11-28T02:20:59.010Z,33.90
2018-11-28T02:23:27.945Z,40.97
2018-11-28T02:25:56.609Z,38.93
2018-11-28T02:28:25.361Z,47.77
2018-11-28T02:30:54.084Z,38.57
2018-11-28T02:33:22.637Z,33.60
2018-11-28T02:35:51.244Z,33.23
2018-11-28T02:38:20.001Z,41.43
2018-11-28T02:40:48.889Z,34.67
2018-11-28T02:43:17.533Z,34.63
2018-11-28T02:45:56.338Z,35.83
2018-11-28T02:48:25.218Z,36.80
2018-11-28T02:50:53.876Z,37.77
2018-11-28T02:53:22.532Z,34.10
2018-11-28T02:55:51.291Z,35.10
2018-11-28T02:58:20.204Z,34.97
2018-11-28T03:00:49.422Z,38.33
2018-11-28T03:03:18.284Z,39.33
2018-11-28T03:05:46.950Z,37.03
2018-11-28T03:08:15.543Z,41.13
2018-11-28T03:10:44.280Z,35.37
2018-11-28T03:13:13.161Z,37.70
2018-11-28T03:15:43.955Z,38.73
2018-11-28T03:18:12.872Z,40.20
2018-11-28T03:20:41.547Z,37.70
2018-11-28T03:23:10.334Z,39.87
2018-11-28T03:25:39.226Z,38.57
2018-11-28T03:28:08.168Z,37.80
2018-11-28T03:30:37.071Z,41.70
2018-11-28T03:33:05.742Z,37.40
2018-11-28T03:35:34.508Z,36.97
2018-11-28T03:38:03.393Z,41.20
2018-11-28T03:40:32.129Z,37.87
2018-11-28T03:43:00.908Z,32.33
2018-11-28T03:45:29.584Z,39.63
2018-11-28T03:47:58.356Z,35.47
2018-11-28T03:50:27.252Z,36.60
2018-11-28T03:52:56.320Z,35.37
2018-11-28T03:55:25.253Z,33.80
2018-11-28T03:57:53.917Z,37.27
2018-11-28T04:00:22.733Z,36.80
2018-11-28T04:02:51.620Z,32.17
2018-11-28T04:05:20.417Z,35.97
2018-11-28T04:07:49.189Z,38.37
2018-11-28T04:10:17.909Z,35.80
2018-11-28T04:12:46.501Z,35.43
2018-11-28T04:15:18.309Z,31.87
2018-11-28T04:17:47.447Z,32.03
2018-11-28T04:20:18.495Z,36.37
2018-11-28T04:22:47.438Z,33.40
2018-11-28T04:25:16.550Z,38.37
2018-11-28T04:27:45.320Z,34.93
2018-11-28T04:30:17.327Z,33.97
2018-11-28T04:32:46.884Z,35.03
2018-11-28T04:35:15.853Z,39.73
2018-11-28T04:37:44.870Z,33.27
2018-11-28T04:40:14.523Z,35.60
2018-11-28T04:42:43.802Z,37.47
2018-11-28T04:45:14.767Z,35.40
2018-11-28T04:47:43.620Z,32.13
2018-11-28T04:50:13.266Z,37.20
2018-11-28T04:52:41.960Z,37.23
2018-11-28T04:55:12.987Z,37.27
2018-11-28T04:57:41.579Z,35.33
2018-11-28T05:00:12.286Z,32.53
2018-11-28T05:02:41.200Z,35.33
2018-11-28T05:05:10.771Z,37.20
2018-11-28T05:07:40.312Z,33.43
2018-11-28T05:10:13.149Z,33.80
2018-11-28T05:12:41.822Z,39.87
2018-11-28T05:15:14.373Z,34.97
2018-11-28T05:17:44.451Z,35.80
2018-11-28T05:20:15.439Z,37.57
2018-11-28T05:22:44.177Z,33.40
2018-11-28T05:25:18.019Z,34.70
2018-11-28T05:27:46.994Z,38.00
2018-11-28T05:30:16.701Z,38.13
2018-11-28T05:32:45.573Z,35.63
2018-11-28T05:35:18.342Z,36.40
2018-11-28T05:37:47.204Z,39.07
2018-11-28T05:40:18.773Z,36.13
2018-11-28T05:42:47.556Z,36.57
2018-11-28T05:45:16.448Z,37.53
2018-11-28T05:47:45.324Z,34.77
2018-11-28T05:50:15.025Z,38.13
2018-11-28T05:52:43.905Z,37.73
2018-11-28T05:55:12.994Z,36.40
2018-11-28T05:57:41.523Z,40.33
2018-11-28T06:00:11.093Z,37.87
2018-11-28T06:02:40.265Z,37.67
2018-11-28T06:05:09.400Z,38.80
2018-11-28T06:07:38.167Z,42.77
2018-11-28T06:10:07.172Z,38.40
2018-11-28T06:12:35.756Z,36.83
2018-11-28T06:15:05.621Z,38.30
2018-11-28T06:17:34.657Z,39.63
2018-11-28T06:20:04.742Z,40.03
2018-11-28T06:22:33.462Z,41.13
2018-11-28T06:25:01.968Z,37.03
2018-11-28T06:27:30.493Z,37.40
2018-11-28T06:29:59.329Z,49.70
2018-11-28T06:32:28.204Z,38.97
2018-11-28T06:34:56.900Z,40.70
2018-11-28T06:37:25.644Z,38.67
2018-11-28T06:39:54.521Z,37.77
2018-11-28T06:42:23.457Z,37.97
2018-11-28T06:44:52.155Z,37.47
2018-11-28T06:47:20.784Z,39.63
2018-11-28T06:49:49.564Z,37.10
2018-11-28T06:52:18.256Z,39.80
2018-11-28T06:54:46.931Z,42.23
2018-11-28T06:57:15.711Z,35.70
2018-11-28T06:59:44.577Z,41.87
2018-11-28T07:02:13.132Z,40.93
2018-11-28T07:04:42.140Z,36.77
2018-11-28T07:07:10.897Z,36.43
2018-11-28T07:09:39.772Z,39.23
2018-11-28T07:12:08.437Z,38.03
2018-11-28T07:14:36.988Z,37.23
2018-11-28T07:17:05.904Z,38.73
2018-11-28T07:19:34.673Z,32.27
2018-11-28T07:22:03.574Z,37.17
2018-11-28T07:24:32.200Z,35.03
2018-11-28T07:27:01.440Z,35.40
2018-11-28T07:29:30.342Z,33.13
2018-11-28T07:31:59.260Z,37.07
2018-11-28T07:34:28.053Z,35.73
2018-11-28T07:36:56.820Z,36.97
2018-11-28T07:39:25.469Z,36.37
2018-11-28T07:41:54.031Z,36.10
2018-11-28T07:44:22.845Z,36.93
2018-11-28T07:46:51.761Z,39.70
2018-11-28T07:49:20.443Z,38.90
2018-11-28T07:51:49.336Z,33.83
2018-11-28T07:54:18.071Z,38.40
2018-11-28T07:56:46.612Z,38.20
2018-11-28T07:59:15.377Z,38.00
2018-11-28T08:01:44.280Z,41.33
2018-11-28T08:04:13.025Z,36.23
2018-11-28T08:06:41.640Z,35.43
2018-11-28T08:09:10.430Z,34.50
2018-11-28T08:11:39.337Z,36.53
2018-11-28T08:14:08.253Z,39.80
2018-11-28T08:16:37.162Z,37.60
2018-11-28T08:19:05.853Z,35.40
2018-11-28T08:21:34.763Z,35.90
2018-11-28T08:24:03.664Z,36.27
2018-11-28T08:26:32.713Z,35.27
2018-11-28T08:29:01.456Z,36.20
2018-11-28T08:31:30.357Z,31.13
2018-11-28T08:33:59.269Z,32.53
2018-11-28T08:36:28.161Z,35.43
2018-11-28T08:38:56.852Z,33.67
2018-11-28T08:41:25.475Z,36.43
2018-11-28T08:43:54.130Z,35.73
2018-11-28T08:46:22.797Z,34.93
2018-11-28T08:48:51.528Z,33.33
2018-11-28T08:51:20.424Z,32.30
2018-11-28T08:53:49.339Z,36.50
2018-11-28T08:56:18.008Z,34.47
2018-11-28T08:58:46.660Z,32.47
2018-11-28T09:01:15.226Z,36.10
2018-11-28T09:03:44.089Z,36.63
2018-11-28T09:06:12.844Z,32.80
2018-11-28T09:08:41.641Z,34.93
2018-11-28T09:11:10.530Z,30.57
2018-11-28T09:13:39.437Z,36.37
2018-11-28T09:16:08.336Z,33.63
2018-11-28T09:18:37.229Z,40.17
2018-11-28T09:21:05.921Z,34.27
2018-11-28T09:23:34.445Z,33.40
2018-11-28T09:26:02.968Z,34.73
2018-11-28T09:28:31.563Z,33.73
2018-11-28T09:31:00.139Z,35.00
2018-11-28T09:33:28.930Z,32.00
2018-11-28T09:35:57.664Z,32.73
2018-11-28T09:38:26.441Z,32.67
2018-11-28T09:40:55.421Z,31.20
2018-11-28T09:43:24.064Z,34.43
2018-11-28T09:45:52.695Z,29.73
2018-11-28T09:48:21.453Z,32.10
2018-11-28T09:50:50.351Z,31.50
2018-11-28T09:53:19.273Z,30.60
2018-11-28T09:55:48.039Z,33.53
2018-11-28T09:58:17.577Z,34.17
2018-11-28T10:00:46.188Z,33.37
2018-11-28T10:03:14.803Z,31.97
2018-11-28T10:05:43.533Z,33.07
2018-11-28T10:08:12.430Z,31.67
2018-11-28T10:10:41.301Z,33.97
2018-11-28T10:13:10.523Z,31.90
2018-11-28T10:15:39.427Z,29.97
2018-11-28T10:18:08.316Z,32.37
2018-11-28T10:20:37.223Z,30.80
2018-11-28T10:23:05.896Z,27.97
2018-11-28T10:25:34.435Z,31.13
2018-11-28T10:28:03.752Z,28.57
2018-11-28T10:30:33.286Z,31.20
2018-11-28T10:33:02.166Z,29.50
2018-11-28T10:35:30.833Z,33.00
2018-11-28T10:37:59.600Z,29.77
2018-11-28T10:40:28.489Z,31.83
2018-11-28T10:42:59.365Z,31.63
2018-11-28T10:45:29.377Z,29.53
2018-11-28T10:47:58.632Z,30.67
2018-11-28T10:50:27.534Z,31.10
2018-11-28T10:52:56.288Z,28.63
2018-11-28T10:55:25.332Z,28.93
2018-11-28T10:57:53.868Z,30.87
2018-11-28T11:00:35.833Z,32.93
2018-11-28T11:03:11.017Z,28.93
2018-11-28T11:05:45.315Z,29.07
2018-11-28T11:08:19.672Z,29.17
2018-11-28T11:10:54.104Z,30.23
2018-11-28T11:13:28.272Z,32.47
2018-11-28T11:15:57.824Z,27.57
2018-11-28T11:18:27.472Z,32.13
2018-11-28T11:20:56.344Z,28.60
2018-11-28T11:23:25.281Z,30.73
2018-11-28T11:25:54.105Z,31.67
2018-11-28T11:28:22.653Z,28.57
2018-11-28T11:30:51.186Z,25.63
2018-11-28T11:33:19.728Z,27.00
2018-11-28T11:35:48.685Z,31.57
2018-11-28T11:38:17.594Z,26.33
2018-11-28T11:40:46.597Z,27.53
2018-11-28T11:43:15.486Z,27.73
2018-11-28T11:45:44.468Z,28.23
2018-11-28T11:48:13.126Z,26.33
2018-11-28T11:50:41.933Z,27.70
2018-11-28T11:53:10.840Z,24.53
2018-11-28T11:55:39.757Z,26.40
2018-11-28T11:58:08.404Z,25.63
2018-11-28T12:00:37.840Z,28.43
2018-11-28T12:03:07.129Z,23.67
2018-11-28T12:05:35.917Z,27.20
2018-11-28T12:08:05.565Z,25.53
2018-11-28T12:10:34.497Z,26.87
2018-11-28T12:13:03.201Z,25.10
2018-11-28T12:15:32.016Z,23.87
2018-11-28T12:18:00.908Z,28.77
2018-11-28T12:20:33.599Z,28.60
2018-11-28T12:23:02.238Z,29.13
2018-11-28T12:25:31.001Z,25.20
2018-11-28T12:27:59.915Z,26.63
2018-11-28T12:30:28.624Z,25.97
2018-11-28T12:32:57.237Z,26.80
2018-11-28T12:35:25.985Z,28.10
2018-11-28T12:37:54.886Z,25.23
2018-11-28T12:40:23.751Z,24.77
2018-11-28T12:42:53.004Z,26.00
2018-11-28T12:45:21.898Z,22.33
2018-11-28T12:47:50.681Z,26.07
2018-11-28T12:50:26.670Z,27.67
2018-11-28T12:52:55.888Z,27.20
2018-11-28T12:55:25.159Z,24.13
2018-11-28T12:57:53.603Z,25.43
2018-11-28T13:00:23.496Z,26.93
2018-11-28T13:02:52.453Z,26.70
2018-11-28T13:05:21.673Z,23.67
2018-11-28T13:07:50.440Z,25.00
2018-11-28T13:10:22.585Z,25.47
2018-11-28T13:12:51.412Z,24.00
2018-11-28T13:15:21.205Z,24.93
2018-11-28T13:17:50.184Z,23.87
2018-11-28T13:20:19.845Z,22.13
2018-11-28T13:22:49.837Z,24.97
2018-11-28T13:25:20.117Z,23.47
2018-11-28T13:27:48.651Z,24.10
2018-11-28T13:30:18.259Z,24.37
2018-11-28T13:32:47.696Z,24.27
2018-11-28T13:35:18.613Z,24.93
2018-11-28T13:37:48.499Z,23.50
2018-11-28T13:40:18.225Z,25.43
2018-11-28T13:42:47.086Z,24.70
2018-11-28T13:45:21.056Z,28.93
2018-11-28T13:47:50.984Z,28.13
2018-11-28T13:50:19.855Z,24.93
2018-11-28T13:52:48.705Z,26.43
2018-11-28T13:55:40.169Z,24.20
2018-11-28T13:57:51.669Z,23.57
2018-11-28T14:00:20.364Z,23.60
2018-11-28T14:02:48.963Z,25.70
2018-11-28T14:05:17.600Z,23.97
2018-11-28T14:07:46.219Z,22.67
2018-11-28T14:10:15.413Z,24.00
2018-11-28T14:12:44.288Z,22.33
2018-11-28T14:15:18.933Z,23.47
2018-11-28T14:17:51.208Z,23.83
2018-11-28T14:20:20.001Z,21.47
2018-11-28T14:22:48.918Z,22.27
2018-11-28T14:25:17.818Z,22.97
2018-11-28T14:27:46.540Z,20.87
2018-11-28T14:30:15.592Z,23.60
2018-11-28T14:32:45.014Z,21.87
2018-11-28T14:35:13.938Z,24.07
2018-11-28T14:37:42.823Z,21.50
2018-11-28T14:40:20.531Z,20.73
2018-11-28T14:42:53.436Z,20.43
2018-11-28T14:45:22.324Z,22.00
2018-11-28T14:47:51.339Z,23.00
2018-11-28T14:50:21.792Z,19.53
2018-11-28T14:52:50.792Z,19.57
2018-11-28T14:55:20.709Z,19.50
2018-11-28T14:57:49.623Z,18.67
2018-11-28T15:00:18.796Z,20.50
2018-11-28T15:02:48.052Z,18.80
2018-11-28T15:05:38.790Z,19.57
2018-11-28T15:08:11.058Z,19.83
2018-11-28T15:10:46.457Z,22.80
2018-11-28T15:13:15.304Z,20.03
2018-11-28T15:15:44.069Z,22.53
2018-11-28T15:18:12.736Z,21.30
2018-11-28T15:20:41.488Z,20.03
2018-11-28T15:23:10.384Z,21.43
2018-11-28T15:25:39.040Z,17.73
2018-11-28T15:28:07.801Z,19.27
2018-11-28T15:30:36.512Z,19.10
2018-11-28T15:33:05.145Z,20.37
2018-11-28T15:35:33.669Z,20.17
2018-11-28T15:38:02.411Z,21.07
2018-11-28T15:40:31.288Z,19.30
2018-11-28T15:42:59.933Z,18.97
2018-11-28T15:45:28.455Z,19.40
2018-11-28T15:47:57.020Z,20.77
2018-11-28T15:50:25.785Z,18.77
2018-11-28T15:52:54.428Z,24.27
2018-11-28T15:55:23.225Z,20.80
2018-11-28T15:57:51.900Z,24.37
2018-11-28T16:00:22.390Z,21.63
2018-11-28T16:02:50.436Z,22.67
2018-11-28T16:05:19.168Z,23.63
2018-11-28T16:07:48.485Z,26.00
2018-11-28T16:10:23.125Z,24.83
2018-11-28T16:12:52.217Z,24.33
2018-11-28T16:15:22.637Z,24.90
2018-11-28T16:17:51.321Z,26.83
2018-11-28T16:20:20.103Z,23.20
2018-11-28T16:22:48.766Z,25.13
2018-11-28T16:25:17.536Z,32.63
2018-11-28T16:27:46.280Z,27.60
2018-11-28T16:30:15.269Z,25.50
2018-11-28T16:32:44.171Z,25.53
2018-11-28T16:35:16.177Z,26.10
2018-11-28T16:37:44.840Z,27.23
2018-11-28T16:40:14.413Z,25.80
2018-11-28T16:42:43.527Z,28.37
2018-11-28T16:45:20.080Z,30.47
2018-11-28T16:47:48.797Z,28.87
2018-11-28T16:50:18.084Z,28.13
2018-11-28T16:52:47.344Z,26.47
2018-11-28T16:55:17.166Z,26.20
2018-11-28T16:57:48.460Z,27.63
2018-11-28T17:00:20.874Z,33.30
2018-11-28T17:02:50.403Z,29.00
2018-11-28T17:05:19.593Z,28.43
2018-11-28T17:07:48.481Z,34.47
2018-11-28T17:10:22.399Z,29.00
2018-11-28T17:12:51.432Z,31.70
2018-11-28T17:15:20.373Z,28.43
2018-11-28T17:17:49.052Z,31.23
2018-11-28T17:20:21.697Z,31.30
2018-11-28T17:22:51.673Z,27.73
2018-11-28T17:25:21.792Z,32.77
2018-11-28T17:27:50.669Z,30.03
2018-11-28T17:30:21.769Z,33.00
2018-11-28T17:32:50.444Z,31.47
2018-11-28T17:35:18.983Z,33.70
2018-11-28T17:37:47.724Z,33.53
2018-11-28T17:40:18.576Z,33.70
2018-11-28T17:42:49.753Z,34.10
2018-11-28T17:45:18.526Z,31.77
2018-11-28T17:47:47.260Z,32.23
2018-11-28T17:50:20.207Z,32.63
2018-11-28T17:52:52.828Z,37.57
2018-11-28T17:55:21.391Z,30.67
2018-11-28T17:57:50.335Z,31.67
2018-11-28T18:00:19.842Z,31.47
2018-11-28T18:02:48.416Z,31.00
2018-11-28T18:05:17.165Z,31.10
2018-11-28T18:07:46.192Z,31.13
2018-11-28T18:10:17.401Z,27.80
2018-11-28T18:12:57.796Z,31.50
2018-11-28T18:15:26.657Z,28.00
2018-11-28T18:17:56.577Z,26.87
2018-11-28T18:20:25.472Z,31.57
2018-11-28T18:22:54.198Z,27.83
2018-11-28T18:25:23.893Z,27.57
2018-11-28T18:27:52.940Z,27.40
2018-11-28T18:30:21.679Z,29.43
2018-11-28T18:32:50.295Z,28.90
2018-11-28T18:35:18.846Z,28.63
2018-11-28T18:37:47.676Z,30.20
2018-11-28T18:40:16.552Z,28.70
2018-11-28T18:42:45.799Z,28.87
2018-11-28T18:45:18.838Z,25.97
2018-11-28T18:47:47.953Z,27.03
2018-11-28T18:50:16.877Z,25.77
2018-11-28T18:52:45.561Z,26.83
2018-11-28T18:55:17.679Z,28.90
2018-11-28T18:57:47.601Z,27.77
2018-11-28T19:00:18.820Z,25.83
2018-11-28T19:02:47.504Z,22.93
2018-11-28T19:05:16.125Z,22.43
2018-11-28T19:07:44.894Z,23.40
2018-11-28T19:10:17.837Z,22.40
2018-11-28T19:12:46.744Z,22.73
2018-11-28T19:15:16.009Z,21.93
2018-11-28T19:17:45.400Z,20.67
2018-11-28T19:20:15.352Z,23.43
2018-11-28T19:22:44.279Z,22.83
2018-11-28T19:25:14.129Z,18.93
2018-11-28T19:27:43.134Z,22.43
2018-11-28T19:30:18.490Z,23.33
2018-11-28T19:32:47.342Z,21.73
2018-11-28T19:35:15.975Z,19.20
2018-11-28T19:37:44.703Z,19.10
2018-11-28T19:40:18.773Z,19.50
2018-11-28T19:42:47.690Z,18.97
2018-11-28T19:45:16.669Z,19.97
2018-11-28T19:47:45.388Z,17.30
2018-11-28T19:50:14.660Z,16.40
2018-11-28T19:52:43.295Z,17.47
2018-11-28T19:55:12.111Z,18.57
2018-11-28T19:57:40.873Z,18.10
2018-11-28T20:00:10.640Z,17.77
2018-11-28T20:02:39.296Z,17.60
2018-11-28T20:05:08.116Z,17.40
2018-11-28T20:07:37.070Z,19.07
2018-11-28T20:10:10.569Z,16.23
2018-11-28T20:12:40.251Z,19.37
2018-11-28T20:15:10.614Z,16.50
2018-11-28T20:17:39.312Z,16.73
2018-11-28T20:20:10.581Z,16.37
2018-11-28T20:22:39.295Z,16.63
2018-11-28T20:25:08.755Z,16.60
2018-11-28T20:27:37.553Z,18.20
2018-11-28T20:30:09.023Z,16.90
2018-11-28T20:32:37.793Z,17.40
2018-11-28T20:35:06.937Z,15.27
2018-11-28T20:37:35.860Z,15.90
2018-11-28T20:40:07.109Z,16.07
2018-11-28T20:42:35.723Z,15.10
2018-11-28T20:45:04.504Z,16.53
2018-11-28T20:47:33.251Z,16.70
2018-11-28T20:50:02.157Z,15.10
2018-11-28T20:52:31.022Z,17.50
2018-11-28T20:54:59.724Z,19.43
2018-11-28T20:57:28.394Z,16.60
2018-11-28T20:59:57.140Z,15.83
2018-11-28T21:02:25.780Z,15.03
2018-11-28T21:04:54.352Z,14.47
2018-11-28T21:07:23.112Z,17.97
2018-11-28T21:09:54.348Z,14.77
2018-11-28T21:12:23.219Z,15.80
2018-11-28T21:14:51.978Z,16.43
2018-11-28T21:17:20.868Z,15.80
2018-11-28T21:19:49.554Z,15.10
2018-11-28T21:22:18.333Z,14.93
2018-11-28T21:24:47.221Z,14.07
2018-11-28T21:27:16.112Z,13.73
2018-11-28T21:29:44.825Z,14.87
2018-11-28T21:32:13.622Z,13.40
2018-11-28T21:34:42.323Z,18.43
2018-11-28T21:37:11.089Z,14.60
2018-11-28T21:39:39.764Z,13.60
2018-11-28T21:42:08.566Z,14.03
2018-11-28T21:44:37.564Z,13.30
2018-11-28T21:47:06.264Z,12.07
2018-11-28T21:49:34.908Z,13.83
2018-11-28T21:52:03.548Z,17.13
2018-11-28T21:54:32.486Z,14.13
2018-11-28T21:57:01.467Z,15.00
2018-11-28T21:59:30.165Z,13.90
2018-11-28T22:01:58.945Z,13.53
2018-11-28T22:04:27.647Z,12.53
2018-11-28T22:06:56.439Z,12.20
2018-11-28T22:09:25.345Z,14.00
2018-11-28T22:11:54.052Z,15.00
2018-11-28T22:14:22.840Z,11.83
2018-11-28T22:16:51.613Z,12.90
2018-11-28T22:19:20.397Z,13.80
2018-11-28T22:21:49.280Z,14.20
2018-11-28T22:24:18.170Z,11.90
2018-11-28T22:26:47.081Z,13.87
2018-11-28T22:29:15.736Z,12.93
2018-11-28T22:31:44.497Z,19.37
2018-11-28T22:34:13.395Z,14.20
2018-11-28T22:36:42.055Z,12.53
2018-11-28T22:39:10.836Z,13.40
2018-11-28T22:41:39.609Z,11.13
2018-11-28T22:44:08.356Z,11.63
2018-11-28T22:46:37.248Z,10.73
2018-11-28T22:49:06.160Z,11.87
2018-11-28T22:51:34.848Z,11.57
2018-11-28T22:54:03.407Z,10.53
2018-11-28T22:56:31.961Z,11.50
2018-11-28T22:59:00.507Z,11.00
2018-11-28T23:01:34.570Z,14.60
2018-11-28T23:04:03.113Z,12.40
2018-11-28T23:06:31.680Z,12.33
2018-11-28T23:09:00.238Z,13.03
2018-11-28T23:11:28.811Z,12.80
2018-11-28T23:13:57.426Z,11.63
2018-11-28T23:16:26.192Z,10.67
2018-11-28T23:18:54.848Z,13.77
2018-11-28T23:21:23.657Z,12.23
2018-11-28T23:23:52.526Z,11.07
2018-11-28T23:26:21.191Z,12.20
2018-11-28T23:28:49.748Z,12.77
2018-11-28T23:31:18.267Z,10.60
2018-11-28T23:33:47.020Z,12.73
2018-11-28T23:36:15.712Z,9.80
2018-11-28T23:38:44.465Z,9.03
2018-11-28T23:41:13.332Z,10.33
2018-11-28T23:43:42.213Z,10.67
2018-11-28T23:46:11.100Z,9.23
2018-11-28T23:48:39.752Z,10.10
2018-11-28T23:51:08.530Z,12.33
2018-11-28T23:53:37.397Z,10.13
2018-11-28T23:56:06.281Z,9.90
2018-11-28T23:58:34.940Z,10.73
